sensor_id;sensor_type;location;lat;lon;timestamp;P1;durP1;ratioP1;P2;durP2;ratioP2
50056;SDS011;36875;49.468;11.200;2023-03-14T00:00:37;2.63;;;1.10;;
50056;SDS011;36875;49.468;11.200;2023-03-14T00:03:02;1.88;;;1.02;;
50056;SDS011;36875;49.468;11.200;2023-03-14T00:05:28;2.80;;;1.20;;
50056;SDS011;36875;49.468;11.200;2023-03-14T00:07:53;2.30;;;1.10;;
50056;SDS011;36875;49.468;11.200;2023-03-14T00:10:19;2.10;;;0.80;;
50056;SDS011;36875;49.468;11.200;2023-03-14T00:12:45;2.40;;;0.80;;
50056;SDS011;36875;49.468;11.200;2023-03-14T00:15:13;2.63;;;1.02;;
50056;SDS011;36875;49.468;11.200;2023-03-14T00:17:38;3.30;;;1.00;;
50056;SDS011;36875;49.468;11.200;2023-03-14T00:20:05;2.40;;;0.80;;
50056;SDS011;36875;49.468;11.200;2023-03-14T00:22:36;2.40;;;0.80;;
50056;SDS011;36875;49.468;11.200;2023-03-14T00:25:02;2.75;;;0.93;;
50056;SDS011;36875;49.468;11.200;2023-03-14T00:27:28;1.13;;;0.70;;
50056;SDS011;36875;49.468;11.200;2023-03-14T00:29:53;2.72;;;0.70;;
50056;SDS011;36875;49.468;11.200;2023-03-14T00:32:20;3.15;;;0.90;;
50056;SDS011;36875;49.468;11.200;2023-03-14T00:34:46;2.40;;;0.88;;
50056;SDS011;36875;49.468;11.200;2023-03-14T00:37:11;3.75;;;0.90;;
50056;SDS011;36875;49.468;11.200;2023-03-14T00:39:38;5.32;;;1.00;;
50056;SDS011;36875;49.468;11.200;2023-03-14T00:42:04;2.75;;;1.13;;
50056;SDS011;36875;49.468;11.200;2023-03-14T00:44:30;1.48;;;0.80;;
50056;SDS011;36875;49.468;11.200;2023-03-14T00:46:56;5.45;;;0.90;;
50056;SDS011;36875;49.468;11.200;2023-03-14T00:49:24;2.00;;;0.85;;
50056;SDS011;36875;49.468;11.200;2023-03-14T00:51:49;3.28;;;1.17;;
50056;SDS011;36875;49.468;11.200;2023-03-14T00:54:16;2.83;;;0.73;;
50056;SDS011;36875;49.468;11.200;2023-03-14T00:56:41;1.77;;;0.90;;
50056;SDS011;36875;49.468;11.200;2023-03-14T00:59:07;1.55;;;0.70;;
50056;SDS011;36875;49.468;11.200;2023-03-14T01:01:32;2.47;;;0.80;;
50056;SDS011;36875;49.468;11.200;2023-03-14T01:03:58;1.67;;;0.80;;
50056;SDS011;36875;49.468;11.200;2023-03-14T01:06:25;2.05;;;0.80;;
50056;SDS011;36875;49.468;11.200;2023-03-14T01:08:52;1.75;;;0.70;;
50056;SDS011;36875;49.468;11.200;2023-03-14T01:11:19;3.03;;;0.85;;
50056;SDS011;36875;49.468;11.200;2023-03-14T01:13:46;1.88;;;0.80;;
50056;SDS011;36875;49.468;11.200;2023-03-14T01:16:12;1.98;;;0.60;;
50056;SDS011;36875;49.468;11.200;2023-03-14T01:18:38;1.05;;;0.70;;
50056;SDS011;36875;49.468;11.200;2023-03-14T01:21:09;2.50;;;0.60;;
50056;SDS011;36875;49.468;11.200;2023-03-14T01:23:38;1.52;;;0.70;;
50056;SDS011;36875;49.468;11.200;2023-03-14T01:26:03;1.70;;;0.60;;
50056;SDS011;36875;49.468;11.200;2023-03-14T01:28:29;1.23;;;0.50;;
50056;SDS011;36875;49.468;11.200;2023-03-14T01:30:55;3.25;;;0.80;;
50056;SDS011;36875;49.468;11.200;2023-03-14T01:33:20;1.00;;;0.50;;
50056;SDS011;36875;49.468;11.200;2023-03-14T01:35:45;2.50;;;0.70;;
50056;SDS011;36875;49.468;11.200;2023-03-14T01:38:14;2.55;;;0.63;;
50056;SDS011;36875;49.468;11.200;2023-03-14T01:40:44;1.85;;;0.70;;
50056;SDS011;36875;49.468;11.200;2023-03-14T01:43:14;2.85;;;0.82;;
50056;SDS011;36875;49.468;11.200;2023-03-14T01:48:45;2.17;;;0.85;;
50056;SDS011;36875;49.468;11.200;2023-03-14T01:51:16;1.27;;;0.70;;
50056;SDS011;36875;49.468;11.200;2023-03-14T01:53:45;1.92;;;0.50;;
50056;SDS011;36875;49.468;11.200;2023-03-14T01:56:15;2.28;;;0.70;;
50056;SDS011;36875;49.468;11.200;2023-03-14T01:58:43;1.92;;;0.60;;
50056;SDS011;36875;49.468;11.200;2023-03-14T02:01:12;0.63;;;0.40;;
50056;SDS011;36875;49.468;11.200;2023-03-14T02:03:43;1.20;;;0.60;;
50056;SDS011;36875;49.468;11.200;2023-03-14T02:06:14;0.82;;;0.40;;
50056;SDS011;36875;49.468;11.200;2023-03-14T02:08:43;1.55;;;0.60;;
50056;SDS011;36875;49.468;11.200;2023-03-14T02:11:12;0.82;;;0.50;;
50056;SDS011;36875;49.468;11.200;2023-03-14T02:13:39;0.82;;;0.50;;
50056;SDS011;36875;49.468;11.200;2023-03-14T02:16:05;1.05;;;0.50;;
50056;SDS011;36875;49.468;11.200;2023-03-14T02:18:31;1.17;;;0.55;;
50056;SDS011;36875;49.468;11.200;2023-03-14T02:20:59;0.57;;;0.40;;
50056;SDS011;36875;49.468;11.200;2023-03-14T02:23:31;2.22;;;0.68;;
50056;SDS011;36875;49.468;11.200;2023-03-14T02:26:06;1.33;;;0.50;;
50056;SDS011;36875;49.468;11.200;2023-03-14T02:28:37;1.23;;;0.85;;
50056;SDS011;36875;49.468;11.200;2023-03-14T02:31:03;1.08;;;0.50;;
50056;SDS011;36875;49.468;11.200;2023-03-14T02:33:29;1.60;;;0.73;;
50056;SDS011;36875;49.468;11.200;2023-03-14T02:35:56;2.30;;;0.55;;
50056;SDS011;36875;49.468;11.200;2023-03-14T02:38:24;1.30;;;0.52;;
50056;SDS011;36875;49.468;11.200;2023-03-14T02:40:54;0.98;;;0.70;;
50056;SDS011;36875;49.468;11.200;2023-03-14T02:43:19;1.75;;;0.63;;
50056;SDS011;36875;49.468;11.200;2023-03-14T02:45:47;0.90;;;0.35;;
50056;SDS011;36875;49.468;11.200;2023-03-14T02:48:18;1.10;;;0.40;;
50056;SDS011;36875;49.468;11.200;2023-03-14T02:50:45;0.68;;;0.40;;
50056;SDS011;36875;49.468;11.200;2023-03-14T02:53:14;1.15;;;0.55;;
50056;SDS011;36875;49.468;11.200;2023-03-14T02:55:44;0.95;;;0.50;;
50056;SDS011;36875;49.468;11.200;2023-03-14T02:58:11;0.45;;;0.40;;
50056;SDS011;36875;49.468;11.200;2023-03-14T03:00:37;1.65;;;0.65;;
50056;SDS011;36875;49.468;11.200;2023-03-14T03:03:04;1.52;;;0.50;;
50056;SDS011;36875;49.468;11.200;2023-03-14T03:05:30;0.65;;;0.40;;
50056;SDS011;36875;49.468;11.200;2023-03-14T03:07:56;0.95;;;0.40;;
50056;SDS011;36875;49.468;11.200;2023-03-14T03:10:22;1.17;;;0.50;;
50056;SDS011;36875;49.468;11.200;2023-03-14T03:12:47;1.05;;;0.38;;
50056;SDS011;36875;49.468;11.200;2023-03-14T03:15:13;1.00;;;0.55;;
50056;SDS011;36875;49.468;11.200;2023-03-14T03:17:38;1.52;;;0.40;;
50056;SDS011;36875;49.468;11.200;2023-03-14T03:20:06;1.80;;;0.50;;
50056;SDS011;36875;49.468;11.200;2023-03-14T03:22:34;1.55;;;0.40;;
50056;SDS011;36875;49.468;11.200;2023-03-14T03:24:59;1.33;;;0.30;;
50056;SDS011;36875;49.468;11.200;2023-03-14T03:27:25;0.60;;;0.50;;
50056;SDS011;36875;49.468;11.200;2023-03-14T03:29:50;1.70;;;0.52;;
50056;SDS011;36875;49.468;11.200;2023-03-14T03:32:16;1.30;;;0.50;;
50056;SDS011;36875;49.468;11.200;2023-03-14T03:34:41;1.90;;;0.90;;
50056;SDS011;36875;49.468;11.200;2023-03-14T03:37:08;1.00;;;0.30;;
50056;SDS011;36875;49.468;11.200;2023-03-14T03:39:33;1.10;;;0.60;;
50056;SDS011;36875;49.468;11.200;2023-03-14T03:41:59;0.80;;;0.40;;
50056;SDS011;36875;49.468;11.200;2023-03-14T03:44:24;0.57;;;0.30;;
50056;SDS011;36875;49.468;11.200;2023-03-14T03:46:50;1.17;;;0.50;;
50056;SDS011;36875;49.468;11.200;2023-03-14T03:49:15;2.00;;;0.57;;
50056;SDS011;36875;49.468;11.200;2023-03-14T03:51:41;0.40;;;0.30;;
50056;SDS011;36875;49.468;11.200;2023-03-14T03:54:10;0.75;;;0.43;;
50056;SDS011;36875;49.468;11.200;2023-03-14T03:56:36;0.47;;;0.30;;
50056;SDS011;36875;49.468;11.200;2023-03-14T03:59:01;1.35;;;0.40;;
50056;SDS011;36875;49.468;11.200;2023-03-14T04:01:27;1.60;;;0.50;;
50056;SDS011;36875;49.468;11.200;2023-03-14T04:03:52;0.88;;;0.30;;
50056;SDS011;36875;49.468;11.200;2023-03-14T04:06:18;0.80;;;0.40;;
50056;SDS011;36875;49.468;11.200;2023-03-14T04:08:43;1.05;;;0.50;;
50056;SDS011;36875;49.468;11.200;2023-03-14T04:11:10;2.20;;;0.43;;
50056;SDS011;36875;49.468;11.200;2023-03-14T04:13:36;0.65;;;0.40;;
50056;SDS011;36875;49.468;11.200;2023-03-14T04:16:01;1.90;;;0.40;;
50056;SDS011;36875;49.468;11.200;2023-03-14T04:18:27;0.95;;;0.30;;
50056;SDS011;36875;49.468;11.200;2023-03-14T04:20:54;0.70;;;0.30;;
50056;SDS011;36875;49.468;11.200;2023-03-14T04:23:21;1.70;;;0.40;;
50056;SDS011;36875;49.468;11.200;2023-03-14T04:25:50;0.88;;;0.40;;
50056;SDS011;36875;49.468;11.200;2023-03-14T04:28:17;0.32;;;0.20;;
50056;SDS011;36875;49.468;11.200;2023-03-14T04:30:43;0.35;;;0.25;;
50056;SDS011;36875;49.468;11.200;2023-03-14T04:33:09;1.20;;;0.45;;
50056;SDS011;36875;49.468;11.200;2023-03-14T04:35:34;0.38;;;0.30;;
50056;SDS011;36875;49.468;11.200;2023-03-14T04:38:01;1.75;;;0.55;;
50056;SDS011;36875;49.468;11.200;2023-03-14T04:40:26;0.80;;;0.35;;
50056;SDS011;36875;49.468;11.200;2023-03-14T04:42:52;0.57;;;0.40;;
50056;SDS011;36875;49.468;11.200;2023-03-14T04:45:19;0.47;;;0.38;;
50056;SDS011;36875;49.468;11.200;2023-03-14T04:47:44;0.57;;;0.40;;
50056;SDS011;36875;49.468;11.200;2023-03-14T04:50:10;0.73;;;0.73;;
50056;SDS011;36875;49.468;11.200;2023-03-14T04:52:35;0.45;;;0.40;;
50056;SDS011;36875;49.468;11.200;2023-03-14T04:55:01;0.77;;;0.30;;
50056;SDS011;36875;49.468;11.200;2023-03-14T04:57:27;0.43;;;0.25;;
50056;SDS011;36875;49.468;11.200;2023-03-14T04:59:52;0.45;;;0.20;;
50056;SDS011;36875;49.468;11.200;2023-03-14T05:02:19;1.45;;;0.50;;
50056;SDS011;36875;49.468;11.200;2023-03-14T05:04:45;0.30;;;0.30;;
50056;SDS011;36875;49.468;11.200;2023-03-14T05:07:10;0.65;;;0.30;;
50056;SDS011;36875;49.468;11.200;2023-03-14T05:09:35;1.48;;;0.30;;
50056;SDS011;36875;49.468;11.200;2023-03-14T05:12:01;0.68;;;0.30;;
50056;SDS011;36875;49.468;11.200;2023-03-14T05:14:27;0.20;;;0.20;;
50056;SDS011;36875;49.468;11.200;2023-03-14T05:16:52;0.98;;;0.20;;
50056;SDS011;36875;49.468;11.200;2023-03-14T05:19:19;1.02;;;0.43;;
50056;SDS011;36875;49.468;11.200;2023-03-14T05:21:44;1.80;;;0.30;;
50056;SDS011;36875;49.468;11.200;2023-03-14T05:24:10;0.28;;;0.20;;
50056;SDS011;36875;49.468;11.200;2023-03-14T05:26:35;0.45;;;0.30;;
50056;SDS011;36875;49.468;11.200;2023-03-14T05:29:01;2.70;;;0.40;;
50056;SDS011;36875;49.468;11.200;2023-03-14T05:31:26;0.80;;;0.25;;
50056;SDS011;36875;49.468;11.200;2023-03-14T05:33:52;1.85;;;0.50;;
50056;SDS011;36875;49.468;11.200;2023-03-14T05:36:19;0.55;;;0.30;;
50056;SDS011;36875;49.468;11.200;2023-03-14T05:38:44;0.57;;;0.22;;
50056;SDS011;36875;49.468;11.200;2023-03-14T05:41:10;0.57;;;0.30;;
50056;SDS011;36875;49.468;11.200;2023-03-14T05:43:35;1.50;;;0.20;;
50056;SDS011;36875;49.468;11.200;2023-03-14T05:46:01;0.30;;;0.25;;
50056;SDS011;36875;49.468;11.200;2023-03-14T05:48:26;0.63;;;0.30;;
50056;SDS011;36875;49.468;11.200;2023-03-14T05:50:54;1.63;;;0.50;;
50056;SDS011;36875;49.468;11.200;2023-03-14T05:53:21;0.60;;;0.30;;
50056;SDS011;36875;49.468;11.200;2023-03-14T05:55:50;0.75;;;0.45;;
50056;SDS011;36875;49.468;11.200;2023-03-14T05:58:16;0.20;;;0.20;;
50056;SDS011;36875;49.468;11.200;2023-03-14T06:00:41;0.28;;;0.20;;
50056;SDS011;36875;49.468;11.200;2023-03-14T06:03:07;0.65;;;0.30;;
50056;SDS011;36875;49.468;11.200;2023-03-14T06:05:32;0.60;;;0.30;;
50056;SDS011;36875;49.468;11.200;2023-03-14T06:07:58;1.17;;;0.22;;
50056;SDS011;36875;49.468;11.200;2023-03-14T06:10:25;1.10;;;0.50;;
50056;SDS011;36875;49.468;11.200;2023-03-14T06:12:50;0.77;;;0.20;;
50056;SDS011;36875;49.468;11.200;2023-03-14T06:15:16;0.28;;;0.20;;
50056;SDS011;36875;49.468;11.200;2023-03-14T06:17:41;1.30;;;0.30;;
50056;SDS011;36875;49.468;11.200;2023-03-14T06:20:07;2.85;;;0.40;;
50056;SDS011;36875;49.468;11.200;2023-03-14T06:22:33;0.40;;;0.30;;
50056;SDS011;36875;49.468;11.200;2023-03-14T06:24:59;1.08;;;0.20;;
50056;SDS011;36875;49.468;11.200;2023-03-14T06:27:26;1.17;;;0.30;;
50056;SDS011;36875;49.468;11.200;2023-03-14T06:29:51;1.38;;;0.40;;
50056;SDS011;36875;49.468;11.200;2023-03-14T06:32:17;1.85;;;0.40;;
50056;SDS011;36875;49.468;11.200;2023-03-14T06:34:44;0.93;;;0.40;;
50056;SDS011;36875;49.468;11.200;2023-03-14T06:37:09;0.43;;;0.35;;
50056;SDS011;36875;49.468;11.200;2023-03-14T06:39:35;0.68;;;0.30;;
50056;SDS011;36875;49.468;11.200;2023-03-14T06:42:00;2.88;;;0.30;;
50056;SDS011;36875;49.468;11.200;2023-03-14T06:44:27;3.28;;;0.43;;
50056;SDS011;36875;49.468;11.200;2023-03-14T06:46:53;0.77;;;0.30;;
50056;SDS011;36875;49.468;11.200;2023-03-14T06:49:18;1.60;;;0.47;;
50056;SDS011;36875;49.468;11.200;2023-03-14T06:51:44;3.20;;;0.52;;
50056;SDS011;36875;49.468;11.200;2023-03-14T06:54:09;1.60;;;0.43;;
50056;SDS011;36875;49.468;11.200;2023-03-14T06:56:35;1.83;;;0.70;;
50056;SDS011;36875;49.468;11.200;2023-03-14T06:59:00;1.75;;;0.60;;
50056;SDS011;36875;49.468;11.200;2023-03-14T07:01:27;2.22;;;0.47;;
50056;SDS011;36875;49.468;11.200;2023-03-14T07:03:54;3.25;;;0.70;;
50056;SDS011;36875;49.468;11.200;2023-03-14T07:06:20;27.60;;;2.83;;
50056;SDS011;36875;49.468;11.200;2023-03-14T07:08:46;3.75;;;0.70;;
50056;SDS011;36875;49.468;11.200;2023-03-14T07:11:11;6.90;;;0.95;;
50056;SDS011;36875;49.468;11.200;2023-03-14T07:13:37;4.95;;;0.77;;
50056;SDS011;36875;49.468;11.200;2023-03-14T07:16:03;4.68;;;1.00;;
50056;SDS011;36875;49.468;11.200;2023-03-14T07:18:30;5.32;;;0.75;;
50056;SDS011;36875;49.468;11.200;2023-03-14T07:20:56;6.18;;;1.00;;
50056;SDS011;36875;49.468;11.200;2023-03-14T07:23:21;6.85;;;1.38;;
50056;SDS011;36875;49.468;11.200;2023-03-14T07:25:47;7.53;;;1.65;;
50056;SDS011;36875;49.468;11.200;2023-03-14T07:28:12;5.70;;;1.08;;
50056;SDS011;36875;49.468;11.200;2023-03-14T07:30:38;9.10;;;2.25;;
50056;SDS011;36875;49.468;11.200;2023-03-14T07:33:03;6.75;;;0.88;;
50056;SDS011;36875;49.468;11.200;2023-03-14T07:35:30;5.05;;;1.10;;
50056;SDS011;36875;49.468;11.200;2023-03-14T07:37:55;8.40;;;1.20;;
50056;SDS011;36875;49.468;11.200;2023-03-14T07:40:21;5.53;;;1.08;;
50056;SDS011;36875;49.468;11.200;2023-03-14T07:42:47;6.90;;;1.42;;
50056;SDS011;36875;49.468;11.200;2023-03-14T07:45:13;8.02;;;1.40;;
50056;SDS011;36875;49.468;11.200;2023-03-14T07:47:38;8.57;;;1.33;;
50056;SDS011;36875;49.468;11.200;2023-03-14T07:50:04;6.30;;;2.00;;
50056;SDS011;36875;49.468;11.200;2023-03-14T07:52:32;6.03;;;1.42;;
50056;SDS011;36875;49.468;11.200;2023-03-14T07:54:57;6.10;;;1.20;;
50056;SDS011;36875;49.468;11.200;2023-03-14T07:57:23;8.43;;;1.40;;
50056;SDS011;36875;49.468;11.200;2023-03-14T07:59:49;7.85;;;1.25;;
50056;SDS011;36875;49.468;11.200;2023-03-14T08:02:15;7.72;;;1.50;;
50056;SDS011;36875;49.468;11.200;2023-03-14T08:04:40;6.22;;;1.05;;
50056;SDS011;36875;49.468;11.200;2023-03-14T08:07:06;7.40;;;1.08;;
50056;SDS011;36875;49.468;11.200;2023-03-14T08:09:33;3.92;;;1.00;;
50056;SDS011;36875;49.468;11.200;2023-03-14T08:11:59;7.03;;;1.00;;
50056;SDS011;36875;49.468;11.200;2023-03-14T08:14:24;8.48;;;1.10;;
50056;SDS011;36875;49.468;11.200;2023-03-14T08:16:50;5.95;;;1.23;;
50056;SDS011;36875;49.468;11.200;2023-03-14T08:19:16;3.38;;;0.93;;
50056;SDS011;36875;49.468;11.200;2023-03-14T08:21:42;4.47;;;0.82;;
50056;SDS011;36875;49.468;11.200;2023-03-14T08:24:07;3.75;;;0.98;;
50056;SDS011;36875;49.468;11.200;2023-03-14T08:26:35;4.97;;;0.90;;
50056;SDS011;36875;49.468;11.200;2023-03-14T08:29:00;7.10;;;1.30;;
50056;SDS011;36875;49.468;11.200;2023-03-14T08:31:26;3.47;;;1.00;;
50056;SDS011;36875;49.468;11.200;2023-03-14T08:33:51;1.58;;;0.60;;
50056;SDS011;36875;49.468;11.200;2023-03-14T08:36:18;4.03;;;0.52;;
50056;SDS011;36875;49.468;11.200;2023-03-14T08:38:44;2.95;;;0.80;;
50056;SDS011;36875;49.468;11.200;2023-03-14T08:41:10;3.08;;;1.08;;
50056;SDS011;36875;49.468;11.200;2023-03-14T08:43:37;3.13;;;0.98;;
50056;SDS011;36875;49.468;11.200;2023-03-14T08:46:02;3.72;;;0.60;;
50056;SDS011;36875;49.468;11.200;2023-03-14T08:48:28;4.72;;;0.85;;
50056;SDS011;36875;49.468;11.200;2023-03-14T08:50:55;3.20;;;0.90;;
50056;SDS011;36875;49.468;11.200;2023-03-14T08:53:21;2.05;;;0.70;;
50056;SDS011;36875;49.468;11.200;2023-03-14T08:55:50;1.63;;;0.65;;
50056;SDS011;36875;49.468;11.200;2023-03-14T08:58:18;4.95;;;0.65;;
50056;SDS011;36875;49.468;11.200;2023-03-14T09:00:44;4.93;;;0.90;;
50056;SDS011;36875;49.468;11.200;2023-03-14T09:03:10;4.50;;;0.85;;
50056;SDS011;36875;49.468;11.200;2023-03-14T09:05:35;5.30;;;0.95;;
50056;SDS011;36875;49.468;11.200;2023-03-14T09:08:01;2.40;;;0.70;;
50056;SDS011;36875;49.468;11.200;2023-03-14T09:10:27;3.47;;;0.60;;
50056;SDS011;36875;49.468;11.200;2023-03-14T09:12:52;1.30;;;0.50;;
50056;SDS011;36875;49.468;11.200;2023-03-14T09:15:18;3.92;;;0.60;;
50056;SDS011;36875;49.468;11.200;2023-03-14T09:17:45;2.40;;;0.63;;
50056;SDS011;36875;49.468;11.200;2023-03-14T09:20:10;1.65;;;0.73;;
50056;SDS011;36875;49.468;11.200;2023-03-14T09:22:36;4.68;;;0.63;;
50056;SDS011;36875;49.468;11.200;2023-03-14T09:25:02;2.00;;;0.90;;
50056;SDS011;36875;49.468;11.200;2023-03-14T09:27:27;2.05;;;0.45;;
50056;SDS011;36875;49.468;11.200;2023-03-14T09:29:53;2.45;;;0.80;;
50056;SDS011;36875;49.468;11.200;2023-03-14T09:32:18;1.90;;;0.55;;
50056;SDS011;36875;49.468;11.200;2023-03-14T09:34:45;1.67;;;0.60;;
50056;SDS011;36875;49.468;11.200;2023-03-14T09:37:10;2.67;;;0.60;;
50056;SDS011;36875;49.468;11.200;2023-03-14T09:39:36;2.42;;;0.60;;
50056;SDS011;36875;49.468;11.200;2023-03-14T09:42:02;1.92;;;0.50;;
50056;SDS011;36875;49.468;11.200;2023-03-14T09:44:31;2.13;;;0.52;;
50056;SDS011;36875;49.468;11.200;2023-03-14T09:46:58;2.75;;;0.52;;
50056;SDS011;36875;49.468;11.200;2023-03-14T09:49:28;2.25;;;0.70;;
50056;SDS011;36875;49.468;11.200;2023-03-14T09:51:58;2.03;;;0.50;;
50056;SDS011;36875;49.468;11.200;2023-03-14T09:54:30;1.70;;;0.60;;
50056;SDS011;36875;49.468;11.200;2023-03-14T09:56:57;1.35;;;0.50;;
50056;SDS011;36875;49.468;11.200;2023-03-14T09:59:22;4.47;;;0.73;;
50056;SDS011;36875;49.468;11.200;2023-03-14T10:01:48;1.48;;;0.40;;
50056;SDS011;36875;49.468;11.200;2023-03-14T10:04:14;3.92;;;0.65;;
50056;SDS011;36875;49.468;11.200;2023-03-14T10:06:42;5.05;;;0.63;;
50056;SDS011;36875;49.468;11.200;2023-03-14T10:09:09;3.85;;;0.73;;
50056;SDS011;36875;49.468;11.200;2023-03-14T10:11:42;5.63;;;0.95;;
50056;SDS011;36875;49.468;11.200;2023-03-14T10:14:08;1.90;;;0.80;;
50056;SDS011;36875;49.468;11.200;2023-03-14T10:16:35;2.47;;;0.75;;
50056;SDS011;36875;49.468;11.200;2023-03-14T10:19:03;2.45;;;0.80;;
50056;SDS011;36875;49.468;11.200;2023-03-14T10:21:30;3.58;;;0.98;;
50056;SDS011;36875;49.468;11.200;2023-03-14T10:24:07;3.10;;;1.10;;
50056;SDS011;36875;49.468;11.200;2023-03-14T10:26:35;3.80;;;0.80;;
50056;SDS011;36875;49.468;11.200;2023-03-14T10:29:02;4.13;;;1.13;;
50056;SDS011;36875;49.468;11.200;2023-03-14T10:31:45;2.75;;;0.60;;
50056;SDS011;36875;49.468;11.200;2023-03-14T10:34:15;4.00;;;0.85;;
50056;SDS011;36875;49.468;11.200;2023-03-14T10:36:45;4.00;;;0.85;;
50056;SDS011;36875;49.468;11.200;2023-03-14T10:39:27;1.00;;;0.47;;
50056;SDS011;36875;49.468;11.200;2023-03-14T10:42:03;4.05;;;0.98;;
50056;SDS011;36875;49.468;11.200;2023-03-14T10:44:30;4.18;;;0.73;;
50056;SDS011;36875;49.468;11.200;2023-03-14T10:46:58;1.90;;;0.60;;
50056;SDS011;36875;49.468;11.200;2023-03-14T10:49:27;2.95;;;0.70;;
50056;SDS011;36875;49.468;11.200;2023-03-14T10:51:54;3.40;;;0.63;;
50056;SDS011;36875;49.468;11.200;2023-03-14T10:54:20;1.70;;;0.57;;
50056;SDS011;36875;49.468;11.200;2023-03-14T10:56:56;2.08;;;0.65;;
50056;SDS011;36875;49.468;11.200;2023-03-14T10:59:38;2.83;;;0.90;;
50056;SDS011;36875;49.468;11.200;2023-03-14T11:02:10;1.73;;;0.77;;
50056;SDS011;36875;49.468;11.200;2023-03-14T11:04:55;2.05;;;0.60;;
50056;SDS011;36875;49.468;11.200;2023-03-14T11:07:29;3.30;;;0.60;;
50056;SDS011;36875;49.468;11.200;2023-03-14T11:10:01;4.97;;;0.93;;
50056;SDS011;36875;49.468;11.200;2023-03-14T11:12:38;1.40;;;0.40;;
50056;SDS011;36875;49.468;11.200;2023-03-14T11:15:13;3.63;;;0.50;;
50056;SDS011;36875;49.468;11.200;2023-03-14T11:17:46;6.57;;;1.20;;
50056;SDS011;36875;49.468;11.200;2023-03-14T11:23:08;3.22;;;0.70;;
50056;SDS011;36875;49.468;11.200;2023-03-14T11:25:41;4.05;;;0.60;;
50056;SDS011;36875;49.468;11.200;2023-03-14T11:28:16;4.65;;;0.90;;
50056;SDS011;36875;49.468;11.200;2023-03-14T11:30:47;3.63;;;0.80;;
50056;SDS011;36875;49.468;11.200;2023-03-14T11:33:17;6.35;;;0.90;;
50056;SDS011;36875;49.468;11.200;2023-03-14T11:35:47;4.15;;;0.60;;
50056;SDS011;36875;49.468;11.200;2023-03-14T11:38:21;3.80;;;0.80;;
50056;SDS011;36875;49.468;11.200;2023-03-14T11:40:54;3.83;;;1.40;;
50056;SDS011;36875;49.468;11.200;2023-03-14T11:43:26;6.43;;;1.50;;
50056;SDS011;36875;49.468;11.200;2023-03-14T11:45:54;10.30;;;5.43;;
50056;SDS011;36875;49.468;11.200;2023-03-14T11:48:29;6.10;;;1.90;;
50056;SDS011;36875;49.468;11.200;2023-03-14T11:51:05;3.28;;;1.58;;
50056;SDS011;36875;49.468;11.200;2023-03-14T11:53:39;5.88;;;1.73;;
50056;SDS011;36875;49.468;11.200;2023-03-14T11:56:10;3.70;;;1.88;;
50056;SDS011;36875;49.468;11.200;2023-03-14T11:58:44;6.65;;;1.83;;
50056;SDS011;36875;49.468;11.200;2023-03-14T12:01:15;5.57;;;1.50;;
50056;SDS011;36875;49.468;11.200;2023-03-14T12:03:49;3.97;;;1.70;;
50056;SDS011;36875;49.468;11.200;2023-03-14T12:06:21;5.30;;;1.70;;
50056;SDS011;36875;49.468;11.200;2023-03-14T12:08:53;3.05;;;1.70;;
50056;SDS011;36875;49.468;11.200;2023-03-14T12:11:30;4.22;;;2.10;;
50056;SDS011;36875;49.468;11.200;2023-03-14T12:14:02;6.20;;;2.00;;
50056;SDS011;36875;49.468;11.200;2023-03-14T12:16:40;5.53;;;1.60;;
50056;SDS011;36875;49.468;11.200;2023-03-14T12:22:08;4.65;;;1.48;;
50056;SDS011;36875;49.468;11.200;2023-03-14T12:24:45;8.95;;;2.33;;
50056;SDS011;36875;49.468;11.200;2023-03-14T12:30:23;5.20;;;1.58;;
50056;SDS011;36875;49.468;11.200;2023-03-14T12:39:07;2.10;;;1.10;;
50056;SDS011;36875;49.468;11.200;2023-03-14T12:41:46;4.25;;;1.08;;
50056;SDS011;36875;49.468;11.200;2023-03-14T12:47:03;2.78;;;0.95;;
50056;SDS011;36875;49.468;11.200;2023-03-14T12:49:54;6.25;;;1.00;;
50056;SDS011;36875;49.468;11.200;2023-03-14T12:52:33;3.25;;;0.88;;
50056;SDS011;36875;49.468;11.200;2023-03-14T12:55:06;3.47;;;1.20;;
50056;SDS011;36875;49.468;11.200;2023-03-14T12:57:39;3.60;;;1.10;;
50056;SDS011;36875;49.468;11.200;2023-03-14T13:00:17;4.07;;;1.48;;
50056;SDS011;36875;49.468;11.200;2023-03-14T13:02:46;3.90;;;0.98;;
50056;SDS011;36875;49.468;11.200;2023-03-14T13:05:14;2.92;;;1.00;;
50056;SDS011;36875;49.468;11.200;2023-03-14T13:08:03;4.82;;;1.10;;
50056;SDS011;36875;49.468;11.200;2023-03-14T13:10:38;1.83;;;0.93;;
50056;SDS011;36875;49.468;11.200;2023-03-14T13:13:11;3.85;;;1.00;;
50056;SDS011;36875;49.468;11.200;2023-03-14T13:15:44;3.17;;;1.10;;
50056;SDS011;36875;49.468;11.200;2023-03-14T13:18:13;3.58;;;0.90;;
50056;SDS011;36875;49.468;11.200;2023-03-14T13:20:41;2.17;;;0.70;;
50056;SDS011;36875;49.468;11.200;2023-03-14T13:23:20;3.80;;;1.03;;
50056;SDS011;36875;49.468;11.200;2023-03-14T13:25:47;2.97;;;0.90;;
50056;SDS011;36875;49.468;11.200;2023-03-14T13:28:13;5.10;;;0.90;;
50056;SDS011;36875;49.468;11.200;2023-03-14T13:30:40;3.40;;;0.90;;
50056;SDS011;36875;49.468;11.200;2023-03-14T13:33:11;1.73;;;0.70;;
50056;SDS011;36875;49.468;11.200;2023-03-14T13:35:40;2.20;;;0.57;;
50056;SDS011;36875;49.468;11.200;2023-03-14T13:38:13;2.58;;;0.95;;
50056;SDS011;36875;49.468;11.200;2023-03-14T13:40:42;4.03;;;0.95;;
50056;SDS011;36875;49.468;11.200;2023-03-14T13:43:13;3.10;;;0.50;;
50056;SDS011;36875;49.468;11.200;2023-03-14T13:45:45;3.08;;;1.17;;
50056;SDS011;36875;49.468;11.200;2023-03-14T13:48:16;4.55;;;0.90;;
50056;SDS011;36875;49.468;11.200;2023-03-14T13:50:46;7.70;;;0.90;;
50056;SDS011;36875;49.468;11.200;2023-03-14T13:53:16;6.43;;;0.98;;
50056;SDS011;36875;49.468;11.200;2023-03-14T13:55:42;4.20;;;0.85;;
50056;SDS011;36875;49.468;11.200;2023-03-14T13:58:11;2.97;;;0.80;;
50056;SDS011;36875;49.468;11.200;2023-03-14T14:00:52;3.45;;;0.70;;
50056;SDS011;36875;49.468;11.200;2023-03-14T14:03:24;3.67;;;0.75;;
50056;SDS011;36875;49.468;11.200;2023-03-14T14:05:50;6.63;;;1.10;;
50056;SDS011;36875;49.468;11.200;2023-03-14T14:08:16;5.20;;;1.48;;
50056;SDS011;36875;49.468;11.200;2023-03-14T14:10:41;10.63;;;4.90;;
50056;SDS011;36875;49.468;11.200;2023-03-14T14:13:08;13.52;;;2.08;;
50056;SDS011;36875;49.468;11.200;2023-03-14T14:15:39;9.35;;;1.83;;
50056;SDS011;36875;49.468;11.200;2023-03-14T14:18:08;7.05;;;1.65;;
50056;SDS011;36875;49.468;11.200;2023-03-14T14:20:39;5.20;;;1.27;;
50056;SDS011;36875;49.468;11.200;2023-03-14T14:23:09;5.50;;;2.17;;
50056;SDS011;36875;49.468;11.200;2023-03-14T14:25:37;11.30;;;1.67;;
50056;SDS011;36875;49.468;11.200;2023-03-14T14:28:14;7.97;;;1.60;;
50056;SDS011;36875;49.468;11.200;2023-03-14T14:30:40;9.55;;;1.77;;
50056;SDS011;36875;49.468;11.200;2023-03-14T14:33:16;10.02;;;1.65;;
50056;SDS011;36875;49.468;11.200;2023-03-14T14:35:50;6.28;;;1.90;;
50056;SDS011;36875;49.468;11.200;2023-03-14T14:38:20;11.60;;;1.90;;
50056;SDS011;36875;49.468;11.200;2023-03-14T14:40:47;8.93;;;1.73;;
50056;SDS011;36875;49.468;11.200;2023-03-14T14:43:17;11.55;;;1.50;;
50056;SDS011;36875;49.468;11.200;2023-03-14T14:45:44;7.65;;;1.35;;
50056;SDS011;36875;49.468;11.200;2023-03-14T14:48:13;12.05;;;2.00;;
50056;SDS011;36875;49.468;11.200;2023-03-14T14:50:39;15.48;;;2.85;;
50056;SDS011;36875;49.468;11.200;2023-03-14T14:53:21;13.00;;;2.30;;
50056;SDS011;36875;49.468;11.200;2023-03-14T14:55:49;11.88;;;2.25;;
50056;SDS011;36875;49.468;11.200;2023-03-14T14:58:18;13.63;;;1.85;;